createdAt,value
2022-08-24T00:01:19.787Z,7.70
2022-08-24T00:03:54.186Z,8.50
2022-08-24T00:06:28.209Z,9.80
2022-08-24T00:09:00.550Z,8.90
2022-08-24T00:11:28.950Z,9.10
2022-08-24T00:13:59.685Z,8.30
2022-08-24T00:16:30.412Z,8.70
2022-08-24T00:19:03.763Z,9.70
2022-08-24T00:21:31.800Z,7.80
2022-08-24T00:24:03.147Z,9.50
2022-08-24T00:26:35.392Z,8.30
2022-08-24T00:29:07.694Z,9.90
2022-08-24T00:31:39.074Z,9.40
2022-08-24T00:34:07.213Z,8.20
2022-08-24T00:36:38.286Z,9.20
2022-08-24T00:39:09.832Z,8.50
2022-08-24T00:41:45.021Z,8.10
2022-08-24T00:44:16.980Z,9.20
2022-08-24T00:47:07.840Z,8.60
2022-08-24T00:49:49.905Z,8.10
2022-08-24T00:52:41.594Z,8.20
2022-08-24T00:55:36.155Z,8.20
2022-08-24T00:58:17.129Z,9.10
2022-08-24T01:01:03.722Z,8.90
2022-08-24T01:03:35.996Z,8.50
2022-08-24T01:06:07.280Z,8.30
2022-08-24T01:08:37.034Z,7.50
2022-08-24T01:11:17.478Z,9.10
2022-08-24T01:13:50.596Z,8.00
2022-08-24T01:16:41.803Z,10.10
2022-08-24T01:19:39.782Z,9.70
2022-08-24T01:22:38.279Z,8.10
2022-08-24T01:25:09.683Z,7.20
2022-08-24T01:27:41.930Z,7.30
2022-08-24T01:30:15.243Z,8.50
2022-08-24T01:32:56.234Z,8.80
2022-08-24T01:35:30.148Z,9.10
2022-08-24T01:38:06.048Z,8.20
2022-08-24T01:40:41.551Z,9.40
2022-08-24T01:43:13.739Z,9.20
2022-08-24T01:45:45.080Z,8.40
2022-08-24T01:48:22.851Z,8.70
2022-08-24T01:50:54.049Z,9.20
2022-08-24T01:53:21.850Z,7.70
2022-08-24T01:55:51.161Z,9.30
2022-08-24T01:58:22.003Z,9.40
2022-08-24T02:00:52.267Z,8.30
2022-08-24T02:03:27.658Z,8.40
2022-08-24T02:06:02.675Z,9.10
2022-08-24T02:08:30.356Z,7.60
2022-08-24T02:11:01.069Z,8.70
2022-08-24T02:13:31.308Z,7.80
2022-08-24T02:16:02.138Z,8.80
2022-08-24T02:18:32.025Z,8.30
2022-08-24T02:21:03.709Z,8.80
2022-08-24T02:23:31.664Z,8.30
2022-08-24T02:26:04.094Z,12.10
2022-08-24T02:28:35.867Z,10.00
2022-08-24T02:31:09.375Z,9.90
2022-08-24T02:33:41.417Z,9.60
2022-08-24T02:36:25.285Z,8.80
2022-08-24T02:38:59.162Z,9.10
2022-08-24T02:41:30.542Z,10.20
2022-08-24T02:44:03.231Z,10.30
2022-08-24T02:46:34.610Z,10.10
2022-08-24T02:49:11.406Z,10.60
2022-08-24T02:51:47.389Z,9.90
2022-08-24T02:54:18.856Z,14.00
2022-08-24T02:56:50.579Z,13.80
2022-08-24T02:59:22.457Z,16.50
2022-08-24T03:01:52.962Z,18.00
2022-08-24T03:04:22.470Z,16.70
2022-08-24T03:06:53.177Z,17.00
2022-08-24T03:09:23.541Z,18.30
2022-08-24T03:11:55.367Z,17.50
2022-08-24T03:14:23.343Z,17.80
2022-08-24T03:16:52.776Z,17.40
2022-08-24T03:19:24.134Z,21.20
2022-08-24T03:21:56.658Z,21.70
2022-08-24T03:24:26.813Z,21.50
2022-08-24T03:26:57.929Z,19.40
2022-08-24T03:29:33.615Z,18.70
2022-08-24T03:32:08.011Z,20.70
2022-08-24T03:34:39.392Z,20.00
2022-08-24T03:37:10.503Z,17.10
2022-08-24T03:39:41.543Z,18.20
2022-08-24T03:42:09.611Z,17.60
2022-08-24T03:44:39.513Z,18.80
2022-08-24T03:47:11.080Z,18.20
2022-08-24T03:49:41.201Z,19.80
2022-08-24T03:52:11.420Z,18.40
2022-08-24T03:54:39.676Z,18.00
2022-08-24T03:57:11.208Z,16.70
2022-08-24T03:59:46.662Z,16.20
2022-08-24T04:02:21.388Z,16.10
2022-08-24T04:04:51.359Z,17.20
2022-08-24T04:07:22.509Z,17.50
2022-08-24T04:09:50.469Z,15.70
2022-08-24T04:12:20.197Z,17.20
2022-08-24T04:14:57.032Z,18.40
2022-08-24T04:17:24.896Z,16.70
2022-08-24T04:19:58.485Z,17.40
2022-08-24T04:22:29.707Z,17.30
2022-08-24T04:25:00.793Z,18.00
2022-08-24T04:27:28.634Z,19.30
2022-08-24T04:29:56.955Z,18.60
2022-08-24T04:32:25.975Z,17.20
2022-08-24T04:34:53.915Z,17.00
2022-08-24T04:37:28.464Z,17.30
2022-08-24T04:39:57.348Z,21.40
2022-08-24T04:42:27.827Z,19.40
2022-08-24T04:44:57.056Z,19.40
2022-08-24T04:47:24.780Z,17.70
2022-08-24T04:49:52.899Z,17.50
2022-08-24T04:52:25.585Z,18.00
2022-08-24T04:54:56.786Z,20.10
2022-08-24T04:57:24.777Z,17.50
2022-08-24T04:59:59.253Z,19.00
2022-08-24T05:02:29.338Z,18.80
2022-08-24T05:04:58.713Z,16.90
2022-08-24T05:07:26.614Z,19.70
2022-08-24T05:09:57.913Z,17.50
2022-08-24T05:12:29.174Z,18.10
2022-08-24T05:14:56.934Z,18.00
2022-08-24T05:17:28.968Z,18.90
2022-08-24T05:19:59.440Z,18.10
2022-08-24T05:22:28.423Z,16.60
2022-08-24T05:24:59.969Z,17.50
2022-08-24T05:27:27.735Z,17.70
2022-08-24T05:29:57.633Z,14.30
2022-08-24T05:32:27.355Z,16.80
2022-08-24T05:34:55.545Z,15.50
2022-08-24T05:37:25.411Z,15.30
2022-08-24T05:39:53.206Z,13.60
2022-08-24T05:42:25.000Z,13.40
2022-08-24T05:44:52.781Z,15.30
2022-08-24T05:47:20.559Z,14.00
2022-08-24T05:49:55.997Z,13.10
2022-08-24T05:52:27.574Z,13.00
2022-08-24T05:54:59.949Z,13.20
2022-08-24T05:57:33.599Z,14.20
2022-08-24T06:00:02.238Z,13.50
2022-08-24T06:02:32.117Z,13.80
2022-08-24T06:05:06.160Z,14.60
2022-08-24T06:07:37.185Z,13.50
2022-08-24T06:10:34.966Z,12.20
2022-08-24T06:13:01.093Z,14.90
2022-08-24T06:15:30.817Z,14.30
2022-08-24T06:18:00.590Z,13.60
2022-08-24T06:20:29.202Z,12.70
2022-08-24T06:22:57.155Z,13.90
2022-08-24T06:25:45.152Z,12.90
2022-08-24T06:28:15.051Z,13.30
2022-08-24T06:30:46.809Z,13.80
2022-08-24T06:33:14.905Z,12.30
2022-08-24T06:35:47.041Z,11.60
2022-08-24T06:38:17.397Z,12.80
2022-08-24T06:40:53.885Z,12.30
2022-08-24T06:43:21.812Z,13.20
2022-08-24T06:45:49.627Z,12.50
2022-08-24T06:48:21.411Z,11.60
2022-08-24T06:50:53.375Z,13.40
2022-08-24T06:53:22.139Z,12.00
2022-08-24T06:55:56.979Z,15.10
2022-08-24T06:58:30.172Z,13.10
2022-08-24T07:01:08.595Z,13.10
2022-08-24T07:03:36.411Z,13.20
2022-08-24T07:06:08.538Z,13.70
2022-08-24T07:08:42.353Z,12.60
2022-08-24T07:11:15.232Z,11.90
2022-08-24T07:13:49.201Z,12.30
2022-08-24T07:16:21.693Z,11.30
2022-08-24T07:18:52.560Z,11.90
2022-08-24T07:21:26.944Z,12.10
2022-08-24T07:24:00.225Z,10.90
2022-08-24T07:26:32.093Z,10.50
2022-08-24T07:29:43.626Z,12.60
2022-08-24T07:32:06.091Z,10.90
2022-08-24T07:34:33.895Z,11.30
2022-08-24T07:37:07.929Z,10.30
2022-08-24T07:39:35.769Z,11.60
2022-08-24T07:42:13.776Z,10.80
2022-08-24T07:44:44.267Z,11.30
2022-08-24T07:47:36.606Z,11.80
2022-08-24T07:50:01.360Z,11.60
2022-08-24T07:52:29.210Z,11.10
2022-08-24T07:54:57.667Z,11.70
2022-08-24T07:57:26.173Z,10.10
2022-08-24T08:00:06.935Z,11.70
2022-08-24T08:02:35.120Z,10.90
2022-08-24T08:05:09.106Z,12.80
2022-08-24T08:07:37.382Z,10.50
2022-08-24T08:10:10.391Z,11.20
2022-08-24T08:12:39.302Z,12.60
2022-08-24T08:15:11.457Z,11.90
2022-08-24T08:17:41.285Z,11.20
2022-08-24T08:20:13.668Z,11.50
2022-08-24T08:23:10.827Z,11.30
2022-08-24T08:25:40.355Z,11.30
2022-08-24T08:28:25.350Z,11.40
2022-08-24T08:31:00.178Z,10.50
2022-08-24T08:36:12.028Z,10.90
2022-08-24T08:38:43.426Z,11.90
2022-08-24T08:41:34.308Z,10.20
2022-08-24T08:44:34.992Z,12.00
2022-08-24T08:47:12.463Z,12.50
2022-08-24T08:50:08.328Z,11.70
2022-08-24T08:52:51.699Z,11.80
2022-08-24T08:55:46.483Z,11.90
2022-08-24T08:58:51.128Z,11.50
2022-08-24T09:01:57.009Z,10.60
2022-08-24T09:04:55.937Z,11.90
2022-08-24T09:08:15.377Z,13.40
2022-08-24T09:11:08.024Z,10.80
2022-08-24T09:14:05.438Z,12.80
2022-08-24T09:16:56.388Z,13.20
2022-08-24T09:20:06.639Z,14.10
2022-08-24T09:22:43.635Z,12.80
2022-08-24T09:25:35.965Z,13.00
2022-08-24T09:28:35.711Z,13.50
2022-08-24T09:31:12.718Z,12.10
2022-08-24T09:36:42.272Z,11.80
2022-08-24T09:39:19.260Z,13.10
2022-08-24T09:42:30.043Z,14.30
2022-08-24T09:45:15.229Z,13.20
2022-08-24T09:47:48.878Z,13.50
2022-08-24T09:50:41.377Z,13.00
2022-08-24T09:53:15.202Z,11.00
2022-08-24T09:56:29.272Z,13.20
2022-08-24T09:59:34.506Z,11.90
2022-08-24T10:02:25.003Z,12.60
2022-08-24T10:05:18.097Z,12.20
2022-08-24T10:08:39.094Z,13.60
2022-08-24T10:11:33.693Z,12.30
2022-08-24T10:14:36.418Z,11.90
2022-08-24T10:17:06.793Z,12.10
2022-08-24T10:19:49.901Z,12.40
2022-08-24T10:22:46.654Z,11.90
2022-08-24T10:25:39.321Z,14.00
2022-08-24T10:28:43.266Z,13.10
2022-08-24T10:31:23.305Z,13.30
2022-08-24T10:34:21.597Z,13.30
2022-08-24T10:37:25.142Z,12.40
2022-08-24T10:40:09.622Z,10.80
2022-08-24T10:43:04.591Z,11.60
2022-08-24T10:45:35.462Z,12.00
2022-08-24T10:48:46.208Z,12.40
2022-08-24T10:51:52.120Z,10.90
2022-08-24T10:54:24.774Z,11.70
2022-08-24T10:57:15.045Z,12.30
2022-08-24T11:00:18.258Z,14.60
2022-08-24T11:03:12.349Z,11.60
2022-08-24T11:05:56.586Z,12.50
2022-08-24T11:08:29.642Z,11.40
2022-08-24T11:11:10.783Z,12.90
2022-08-24T11:13:59.264Z,11.70
2022-08-24T11:16:47.103Z,12.50
2022-08-24T11:19:34.565Z,12.60
2022-08-24T11:22:31.096Z,12.80
2022-08-24T11:25:19.786Z,10.70
2022-08-24T11:27:57.312Z,11.80
2022-08-24T11:30:31.516Z,11.80
2022-08-24T11:33:06.306Z,13.10
2022-08-24T11:35:34.083Z,13.00
2022-08-24T11:38:26.308Z,12.10
2022-08-24T11:41:03.852Z,12.70
2022-08-24T11:43:48.339Z,11.30
2022-08-24T11:46:50.546Z,11.60
2022-08-24T11:49:33.939Z,10.40
2022-08-24T11:52:34.679Z,12.10
2022-08-24T11:55:14.311Z,11.70
2022-08-24T11:58:03.166Z,12.30
2022-08-24T12:00:46.058Z,12.10
2022-08-24T12:03:32.689Z,11.30
2022-08-24T12:06:09.747Z,11.70
2022-08-24T12:08:54.478Z,11.70
2022-08-24T12:11:55.487Z,12.10
2022-08-24T12:14:40.437Z,11.30
2022-08-24T12:17:24.445Z,13.10
2022-08-24T12:20:02.405Z,14.90
2022-08-24T12:22:32.576Z,13.70
2022-08-24T12:25:24.849Z,12.50
2022-08-24T12:27:56.013Z,12.50
2022-08-24T12:30:25.406Z,11.90
2022-08-24T12:32:59.376Z,13.10
2022-08-24T12:35:35.577Z,11.40
2022-08-24T12:38:20.050Z,11.90
2022-08-24T12:41:02.359Z,10.90
2022-08-24T12:43:49.926Z,11.60
2022-08-24T12:46:23.931Z,11.70
2022-08-24T12:48:58.466Z,13.00
2022-08-24T12:51:40.496Z,10.90
2022-08-24T12:54:58.538Z,11.40
2022-08-24T12:58:03.701Z,12.40
2022-08-24T13:00:42.551Z,11.60
2022-08-24T13:03:25.640Z,13.90
2022-08-24T13:05:58.944Z,10.90
2022-08-24T13:08:46.030Z,11.60
2022-08-24T13:11:29.575Z,11.90
2022-08-24T13:16:56.736Z,12.40
2022-08-24T13:19:31.717Z,10.90
2022-08-24T13:22:21.553Z,11.90
2022-08-24T13:25:00.714Z,11.90
2022-08-24T13:27:38.011Z,11.60
2022-08-24T13:30:19.473Z,10.80
2022-08-24T13:33:00.171Z,12.60
2022-08-24T13:35:37.280Z,10.90
2022-08-24T13:38:24.248Z,12.40
2022-08-24T13:41:36.609Z,11.90
2022-08-24T13:44:24.566Z,12.60
2022-08-24T13:47:05.128Z,12.50
2022-08-24T13:50:04.148Z,12.10
2022-08-24T13:52:48.666Z,11.20
2022-08-24T13:55:45.239Z,11.80
2022-08-24T13:58:35.236Z,12.50
2022-08-24T14:01:24.096Z,11.50
2022-08-24T14:03:56.361Z,11.10
2022-08-24T14:07:01.976Z,10.60
2022-08-24T14:09:49.597Z,10.40
2022-08-24T14:12:35.261Z,13.60
2022-08-24T14:15:08.755Z,11.50
2022-08-24T14:17:55.875Z,10.50
2022-08-24T14:20:56.630Z,10.20
2022-08-24T14:23:53.162Z,9.60
2022-08-24T14:26:34.265Z,8.70
2022-08-24T14:29:17.992Z,7.00
2022-08-24T14:32:00.076Z,7.70
2022-08-24T14:35:06.400Z,7.90
2022-08-24T14:38:02.196Z,6.00
2022-08-24T14:40:43.679Z,6.50
2022-08-24T14:43:11.679Z,5.80
2022-08-24T14:46:07.691Z,6.10
2022-08-24T14:48:58.411Z,6.50
2022-08-24T14:52:06.284Z,5.70
2022-08-24T14:54:37.863Z,6.20
2022-08-24T14:57:31.432Z,6.70
2022-08-24T15:00:15.387Z,5.60
2022-08-24T15:02:55.909Z,5.80
2022-08-24T15:05:33.155Z,4.90
2022-08-24T15:08:07.842Z,5.60
2022-08-24T15:10:43.508Z,6.50
2022-08-24T15:13:37.034Z,4.70
2022-08-24T15:16:11.496Z,5.80
2022-08-24T15:18:51.188Z,4.60
2022-08-24T15:21:35.756Z,4.90
2022-08-24T15:24:10.261Z,4.90
2022-08-24T15:27:02.006Z,4.90
2022-08-24T15:29:34.368Z,4.40
2022-08-24T15:32:11.236Z,4.80
2022-08-24T15:34:46.712Z,5.10
2022-08-24T15:37:26.656Z,5.10
2022-08-24T15:39:56.673Z,5.30
2022-08-24T15:42:30.175Z,6.00
2022-08-24T15:45:03.389Z,5.30
2022-08-24T15:47:37.014Z,5.50
2022-08-24T15:50:20.505Z,4.80
2022-08-24T15:53:01.678Z,5.10
2022-08-24T15:55:42.241Z,4.80
2022-08-24T15:58:25.777Z,5.80
2022-08-24T16:01:39.720Z,5.90
2022-08-24T16:04:14.456Z,6.20
2022-08-24T16:06:47.481Z,5.90
2022-08-24T16:12:24.044Z,8.00
2022-08-24T16:15:09.559Z,6.40
2022-08-24T16:17:51.872Z,6.00
2022-08-24T16:20:25.571Z,6.00
2022-08-24T16:23:06.353Z,6.00
2022-08-24T16:25:42.898Z,6.00
2022-08-24T16:28:21.148Z,5.50
2022-08-24T16:30:58.973Z,5.10
2022-08-24T16:33:32.241Z,6.10
2022-08-24T16:36:05.672Z,6.60
2022-08-24T16:38:35.787Z,6.50
2022-08-24T16:41:10.652Z,5.80
2022-08-24T16:43:41.724Z,5.90
2022-08-24T16:46:14.168Z,6.30
2022-08-24T16:48:42.127Z,6.00
2022-08-24T16:51:11.061Z,6.60
2022-08-24T16:53:40.904Z,5.50
2022-08-24T16:56:13.633Z,5.80
2022-08-24T16:58:47.669Z,6.00
2022-08-24T17:01:19.559Z,5.40
2022-08-24T17:03:47.650Z,5.80
2022-08-24T17:06:19.749Z,6.70
2022-08-24T17:08:49.181Z,6.50
2022-08-24T17:11:19.107Z,6.30
2022-08-24T17:13:50.682Z,5.80
2022-08-24T17:16:21.951Z,6.60
2022-08-24T17:18:51.230Z,6.60
2022-08-24T17:21:21.396Z,7.30
2022-08-24T17:23:52.965Z,7.40
2022-08-24T17:26:21.796Z,7.70
2022-08-24T17:28:55.476Z,7.10
2022-08-24T17:31:26.728Z,8.00
2022-08-24T17:33:57.650Z,7.00
2022-08-24T17:36:31.153Z,8.70
2022-08-24T17:39:08.210Z,8.40
2022-08-24T17:41:38.153Z,8.00
2022-08-24T17:44:10.583Z,9.40
2022-08-24T17:46:41.511Z,8.90
2022-08-24T17:49:13.284Z,8.80
2022-08-24T17:51:44.659Z,9.20
2022-08-24T17:54:15.200Z,9.10
2022-08-24T17:56:48.757Z,9.30
2022-08-24T17:59:23.930Z,9.00
2022-08-24T18:01:58.695Z,9.10
2022-08-24T18:04:30.598Z,8.20
2022-08-24T18:07:04.685Z,7.50
2022-08-24T18:09:53.972Z,7.70
2022-08-24T18:12:25.578Z,8.00
2022-08-24T18:14:58.892Z,10.00
2022-08-24T18:17:43.482Z,13.60
2022-08-24T18:20:14.936Z,16.20
2022-08-24T18:22:47.206Z,15.80
2022-08-24T18:25:25.399Z,10.80
2022-08-24T18:27:58.589Z,10.20
2022-08-24T18:30:32.554Z,10.50
2022-08-24T18:33:04.998Z,12.10
2022-08-24T18:35:37.547Z,12.90
2022-08-24T18:38:05.467Z,10.70
2022-08-24T18:40:33.745Z,11.70
2022-08-24T18:43:06.430Z,11.80
2022-08-24T18:45:35.941Z,12.10
2022-08-24T18:48:04.251Z,11.40
2022-08-24T18:50:42.004Z,11.20
2022-08-24T18:53:14.959Z,11.30
2022-08-24T18:55:48.023Z,10.80
2022-08-24T18:58:16.148Z,9.30
2022-08-24T19:00:48.662Z,8.50
2022-08-24T19:03:21.529Z,9.00
2022-08-24T19:05:51.803Z,7.60
2022-08-24T19:08:19.678Z,7.80
2022-08-24T19:10:47.542Z,7.40
2022-08-24T19:13:19.085Z,7.30
2022-08-24T19:15:53.167Z,7.30
2022-08-24T19:18:21.741Z,8.10
2022-08-24T19:20:56.295Z,7.20
2022-08-24T19:23:37.327Z,8.20
2022-08-24T19:26:07.152Z,7.90
2022-08-24T19:28:35.140Z,7.90
2022-08-24T19:31:08.657Z,7.20
2022-08-24T19:33:43.843Z,7.10
2022-08-24T19:36:19.125Z,7.10
2022-08-24T19:38:48.193Z,8.20
2022-08-24T19:41:19.892Z,7.30
2022-08-24T19:44:23.492Z,6.60
2022-08-24T19:46:59.827Z,7.30
2022-08-24T19:49:28.038Z,8.00
2022-08-24T19:51:55.868Z,7.80
2022-08-24T19:54:25.900Z,7.10
2022-08-24T19:56:55.412Z,7.70
2022-08-24T19:59:40.826Z,6.90
2022-08-24T20:02:08.815Z,7.90
2022-08-24T20:04:37.671Z,8.50
2022-08-24T20:07:06.116Z,7.40
2022-08-24T20:09:33.938Z,8.00
2022-08-24T20:12:01.689Z,7.00
2022-08-24T20:14:37.306Z,8.00
2022-08-24T20:17:09.650Z,8.20
2022-08-24T20:19:40.478Z,7.20
2022-08-24T20:22:13.113Z,6.90
2022-08-24T20:27:26.609Z,7.10
2022-08-24T20:29:59.025Z,9.20
2022-08-24T20:32:30.014Z,8.40
2022-08-24T20:35:02.637Z,7.60
2022-08-24T20:40:06.540Z,7.90
2022-08-24T20:42:35.176Z,7.90
2022-08-24T20:45:08.530Z,8.20
2022-08-24T20:47:51.704Z,8.70
2022-08-24T20:50:26.357Z,8.10
2022-08-24T20:52:54.339Z,7.20
2022-08-24T20:55:24.894Z,9.60
2022-08-24T20:57:57.126Z,6.70
2022-08-24T21:00:28.123Z,8.20
2022-08-24T21:02:56.318Z,7.70
2022-08-24T21:05:24.706Z,7.90
2022-08-24T21:07:54.736Z,8.00
2022-08-24T21:10:26.805Z,8.20
2022-08-24T21:12:55.634Z,7.40
2022-08-24T21:15:23.702Z,7.70
2022-08-24T21:17:52.254Z,8.20
2022-08-24T21:20:21.279Z,7.70
2022-08-24T21:22:50.032Z,8.40
2022-08-24T21:25:18.502Z,8.20
2022-08-24T21:27:49.160Z,9.20
2022-08-24T21:30:21.336Z,8.30
2022-08-24T21:33:08.843Z,8.70
2022-08-24T21:35:41.099Z,8.70
2022-08-24T21:38:10.103Z,8.10
2022-08-24T21:40:38.409Z,9.90
2022-08-24T21:43:14.785Z,9.50
2022-08-24T21:45:51.473Z,9.60
2022-08-24T21:48:20.017Z,8.20
2022-08-24T21:50:49.057Z,8.30
2022-08-24T21:53:17.489Z,9.60
2022-08-24T21:55:46.172Z,8.40
2022-08-24T21:58:14.156Z,8.80
2022-08-24T22:00:44.090Z,8.90
2022-08-24T22:03:12.720Z,9.50
2022-08-24T22:05:40.984Z,9.60
2022-08-24T22:08:09.476Z,9.20
2022-08-24T22:10:38.371Z,9.50
2022-08-24T22:13:07.673Z,7.90
2022-08-24T22:15:37.463Z,8.80
2022-08-24T22:18:05.537Z,8.90
2022-08-24T22:20:33.626Z,9.10
2022-08-24T22:23:01.623Z,9.10
2022-08-24T22:25:30.420Z,8.00
2022-08-24T22:27:58.696Z,9.20
2022-08-24T22:30:26.752Z,8.10
2022-08-24T22:32:55.106Z,8.80
2022-08-24T22:35:23.485Z,9.00
2022-08-24T22:37:52.127Z,8.80
2022-08-24T22:40:20.441Z,9.00
2022-08-24T22:42:48.210Z,9.20
2022-08-24T22:45:17.203Z,9.00
2022-08-24T22:47:45.186Z,10.20
2022-08-24T22:50:13.199Z,9.20
2022-08-24T22:52:41.413Z,8.70
2022-08-24T22:55:10.509Z,10.00
2022-08-24T22:57:38.342Z,9.00
2022-08-24T23:00:10.443Z,8.70
2022-08-24T23:02:44.107Z,9.80
2022-08-24T23:05:12.216Z,10.00
2022-08-24T23:07:40.429Z,8.90
2022-08-24T23:10:09.448Z,10.50
2022-08-24T23:12:37.421Z,9.00
2022-08-24T23:15:06.538Z,8.90
2022-08-24T23:17:34.750Z,9.20
2022-08-24T23:20:06.989Z,9.90
2022-08-24T23:22:38.983Z,9.50
2022-08-24T23:25:10.045Z,8.80
2022-08-24T23:27:39.011Z,9.70
2022-08-24T23:30:12.313Z,11.00
2022-08-24T23:35:10.125Z,9.30
2022-08-24T23:37:38.263Z,10.30
2022-08-24T23:40:07.545Z,10.80
2022-08-24T23:42:35.972Z,9.60
2022-08-24T23:45:04.105Z,9.10
2022-08-24T23:47:36.110Z,9.30
2022-08-24T23:50:11.035Z,9.80
2022-08-24T23:52:43.135Z,9.50
2022-08-24T23:55:20.910Z,9.40
2022-08-24T23:57:53.782Z,8.80
